Lulu Pass Weather Station

This weather station provides temperature, relative humidity (RH), wind speed, gust or max wind speed, and wind direction at 10020ft near Lulu Pass at the head of Fisher Creek. This data can be used with temperature and precipitation data from the Fisher Creek SNOTEL site.

This weather station was purchased by the Friends of the Avalanche Center.

If the data has not been updated recently you can view it directly on datagarrison.com

Elevation
10020ft
Jump to table bottom
Date Time Temperature
deg F
RH, % Wind Speed Wind Gust Wind Direction
05/21/22 15:00 25.0 67 13 21 NW - 323
05/21/22 14:00 24.6 75 10 15 NW - 329
05/21/22 13:00 23.0 88 7 15 NW - 336
05/21/22 12:00 24.4 93 6 12 NW - 316
05/21/22 11:00 20.6 94 10 17 NW - 321
05/21/22 10:00 18.2 95 8 16 NW - 320
05/21/22 09:00 18.2 95 3 10 W - 288
05/21/22 08:00 16.9 93 3 5 NW - 307
05/21/22 07:00 15.3 92 7 10 N - 341
05/21/22 06:00 10.5 92 5 8 NW - 321
05/21/22 05:00 9.7 91 6 8 N - 352
05/21/22 04:00 10.7 92 7 9 NW - 334
05/21/22 03:00 10.8 92 6 10 NW - 330
05/21/22 02:00 11.5 92 8 10 N - 341
05/21/22 01:00 11.2 92 10 12 NW - 337
05/21/22 00:00 13.7 93 11 18 NW - 329
05/20/22 23:00 14.5 93 8 12 NW - 309
05/20/22 22:00 14.9 93 6 14 NW - 293
05/20/22 21:00 16.1 94 13 18 NW - 319
05/20/22 20:00 15.2 93 21 31 NW - 331
05/20/22 19:00 16.5 93 19 27 NW - 327
05/20/22 18:00 17.8 94 21 30 NW - 327
05/20/22 17:00 18.9 94 15 21 NW - 303
05/20/22 16:00 19.5 94 14 21 NW - 303
05/20/22 15:00 20.3 94 17 25 NW - 324
05/20/22 14:00 18.4 94 21 31 NW - 320
05/20/22 13:00 19.5 94 23 39 NW - 321
05/20/22 12:00 18.7 93 25 35 NW - 321
05/20/22 11:00 17.5 92 31 51 NW - 331
05/20/22 10:00 15.7 93 26 40 NW - 336
05/20/22 09:00 14.0 92 24 38 NW - 333
05/20/22 08:00 14.1 92 26 36 NW - 320
05/20/22 07:00 13.1 92 25 33 NW - 317
05/20/22 06:00 12.8 92 18 25 NW - 310
05/20/22 05:00 12.0 92 12 20 NW - 303
05/20/22 04:00 12.6 92 21 41 NW - 321
05/20/22 03:00 13.3 92 28 39 NW - 326
05/20/22 02:00 14.4 92 21 27 NW - 309
05/20/22 01:00 14.3 92 20 25 NW - 302
05/20/22 00:00 14.3 90 24 30 NW - 310
05/19/22 23:00 14.4 83 24 33 NW - 309
05/19/22 22:00 15.5 77 25 36 NW - 309
05/19/22 21:00 16.5 72 29 41 NW - 307
05/19/22 20:00 17.2 64 31 42 NW - 312
05/19/22 19:00 18.1 58 31 44 NW - 309
05/19/22 18:00 20.4 54 28 39 NW - 299
05/19/22 17:00 21.0 53 31 44 NW - 305
05/19/22 16:00 20.5 57 26 43 NW - 298
05/19/22 15:00 19.4 69 28 43 NW - 305
05/19/22 14:00 18.7 63 36 52 NW - 306